Time;durP1;ratioP1;P1;durP2;ratioP2;P2;SDS_P1;SDS_P2;PMS_P1;PMS_P2;Temp;Humidity;BMP_temperature;BMP_pressure;BME280_temperature;BME280_humidity;BME280_pressure;Samples;Min_cycle;Max_cycle;Signal;HPM_P1;HPM_P2
2021/01/14 00:00:22;;;;;;;6.75;1.88;;;;;;;4.30;62.90;100202.47;5053387;28;20080;-63
2021/01/14 00:02:51;;;;;;;7.10;2.22;;;;;;;4.19;63.23;100215.47;5052788;28;20049;-63
2021/01/14 00:05:18;;;;;;;8.70;2.23;;;;;;;4.13;63.03;100213.81;5067935;28;20060;-63
2021/01/14 00:07:46;;;;;;;5.45;1.50;;;;;;;4.05;62.80;100210.53;5073828;28;20478;-63
2021/01/14 00:10:13;;;;;;;6.55;1.98;;;;;;;3.97;63.47;100216.59;5073330;28;20055;-63
2021/01/14 00:12:41;;;;;;;7.90;1.90;;;;;;;3.89;62.81;100214.38;5067334;28;20057;-63
2021/01/14 00:15:11;;;;;;;7.22;1.98;;;;;;;3.81;63.32;100212.19;5053609;28;20061;-63
2021/01/14 00:17:38;;;;;;;8.63;1.98;;;;;;;3.71;63.48;100212.19;5053292;28;20056;-63
2021/01/14 00:20:07;;;;;;;5.28;1.55;;;;;;;3.63;63.61;100211.66;5053255;28;20497;-63
2021/01/14 00:22:35;;;;;;;7.70;1.63;;;;;;;3.53;63.62;100210.78;5052870;28;20049;-63
2021/01/14 00:25:02;;;;;;;7.05;2.22;;;;;;;3.47;63.94;100229.25;5053347;28;20052;-63
2021/01/14 00:27:29;;;;;;;6.60;1.80;;;;;;;3.39;64.33;100227.03;5052927;28;20049;-63
2021/01/14 00:29:59;;;;;;;8.85;2.00;;;;;;;3.33;63.65;100225.34;5052611;28;20053;-63
2021/01/14 00:32:26;;;;;;;8.43;1.98;;;;;;;3.29;63.70;100232.50;5052972;28;20045;-63
2021/01/14 00:34:53;;;;;;;6.65;1.60;;;;;;;3.24;64.66;100231.41;5053186;28;20418;-63
2021/01/14 00:40:06;;;;;;;6.90;2.05;;;;;;;3.19;64.21;100241.56;5055053;28;20068;-63
2021/01/14 00:42:36;;;;;;;8.95;2.35;;;;;;;3.17;63.59;100243.75;5052548;28;20055;-63
2021/01/14 00:45:04;;;;;;;8.77;2.20;;;;;;;3.12;63.42;100236.31;5053480;28;20052;-63
2021/01/14 00:47:34;;;;;;;11.30;2.45;;;;;;;3.09;63.78;100245.13;5052484;28;20057;-63
2021/01/14 00:50:01;;;;;;;6.03;1.67;;;;;;;3.07;64.15;100244.56;5052499;28;20064;-63
2021/01/14 00:52:28;;;;;;;6.18;1.70;;;;;;;3.09;64.89;100244.28;5052943;28;20466;-63
2021/01/14 00:54:55;;;;;;;7.68;1.70;;;;;;;3.12;64.27;100239.06;5065091;28;20485;-63
2021/01/14 00:57:23;;;;;;;6.60;1.70;;;;;;;3.13;65.03;100231.63;5072646;28;20083;-63
2021/01/14 00:59:50;;;;;;;6.00;1.40;;;;;;;3.14;64.81;100236.06;5073108;28;20409;-63
2021/01/14 01:02:16;;;;;;;6.82;1.80;;;;;;;3.15;64.57;100243.19;5091615;28;20044;-63
2021/01/14 01:04:43;;;;;;;9.00;1.60;;;;;;;3.16;65.01;100251.19;5073047;28;20100;-63
2021/01/14 01:07:11;;;;;;;6.85;1.48;;;;;;;3.18;64.59;100253.69;5052874;28;20592;-63
2021/01/14 01:09:38;;;;;;;10.32;1.92;;;;;;;3.20;64.63;100252.31;5052411;28;20053;-63
2021/01/14 01:12:06;;;;;;;6.55;1.92;;;;;;;3.23;64.47;100251.78;5052434;28;20049;-63
2021/01/14 01:14:37;;;;;;;4.95;1.50;;;;;;;3.29;64.62;100260.03;5062003;28;20052;-63
2021/01/14 01:17:06;;;;;;;10.48;2.03;;;;;;;3.30;64.88;100253.41;5072609;28;20393;-63
2021/01/14 01:19:33;;;;;;;10.13;1.85;;;;;;;3.35;63.80;100257.00;5072217;28;20062;-63
2021/01/14 01:22:00;;;;;;;10.27;2.30;;;;;;;3.38;63.51;100259.25;5072356;28;20512;-63
2021/01/14 01:24:27;;;;;;;3.80;1.40;;;;;;;3.34;63.74;100254.53;5072803;28;20052;-63
2021/01/14 01:26:56;;;;;;;8.07;2.00;;;;;;;3.36;63.97;100255.94;5072561;28;20056;-63
2021/01/14 01:29:23;;;;;;;7.50;1.60;;;;;;;3.37;64.23;100256.75;5072658;28;20048;-63
2021/01/14 01:31:51;;;;;;;5.80;1.50;;;;;;;3.37;63.90;100257.56;5072898;28;20056;-63
2021/01/14 01:34:18;;;;;;;8.02;1.40;;;;;;;3.40;62.69;100261.69;5072495;28;20059;-63
2021/01/14 01:36:50;;;;;;;7.57;1.95;;;;;;;3.41;62.60;100266.13;5072125;28;20075;-63
2021/01/14 01:39:17;;;;;;;5.45;1.40;;;;;;;3.41;62.15;100263.38;5072271;28;20048;-63
2021/01/14 01:41:45;;;;;;;9.00;1.63;;;;;;;3.47;62.26;100272.47;5072682;28;20045;-63
2021/01/14 01:44:15;;;;;;;9.63;1.67;;;;;;;3.49;62.47;100271.09;5072868;28;20052;-63
2021/01/14 01:46:44;;;;;;;3.90;1.58;;;;;;;3.52;62.52;100265.03;5072197;28;20052;-63
2021/01/14 01:49:14;;;;;;;6.32;1.70;;;;;;;3.53;61.46;100277.72;5071872;28;20059;-63
2021/01/14 01:51:43;;;;;;;5.25;1.38;;;;;;;3.50;61.99;100278.25;5071632;28;20451;-63
2021/01/14 01:54:11;;;;;;;6.85;1.55;;;;;;;3.49;61.33;100276.59;5072553;28;20057;-63
2021/01/14 01:56:38;;;;;;;7.75;1.40;;;;;;;3.46;61.63;100282.66;5072009;28;20052;-63
2021/01/14 01:59:06;;;;;;;7.03;1.55;;;;;;;3.44;61.71;100277.44;5072063;28;20056;-63
2021/01/14 02:01:37;;;;;;;6.63;2.28;;;;;;;3.41;61.80;100275.19;5072267;28;20052;-64
2021/01/14 02:04:06;;;;;;;9.98;1.63;;;;;;;3.37;61.67;100289.78;5072181;28;20052;-63
2021/01/14 02:06:42;;;;;;;6.10;1.50;;;;;;;3.36;61.50;100297.22;5072142;28;20052;-63
2021/01/14 02:09:11;;;;;;;7.18;1.42;;;;;;;3.40;61.60;100294.75;5072099;28;20060;-63
2021/01/14 02:11:41;;;;;;;4.38;1.30;;;;;;;3.40;61.59;100295.59;5071956;28;20060;-63
2021/01/14 02:14:15;;;;;;;6.90;1.45;;;;;;;3.43;61.38;100294.22;5073633;28;20057;-63
2021/01/14 02:16:44;;;;;;;8.48;1.30;;;;;;;3.47;61.78;100291.75;5075326;28;20063;-63
2021/01/14 02:19:16;;;;;;;9.40;1.65;;;;;;;3.51;61.58;100295.59;5075336;28;20056;-63
2021/01/14 02:21:47;;;;;;;7.65;1.58;;;;;;;3.49;62.14;100292.31;5075509;28;20056;-63
2021/01/14 02:24:24;;;;;;;3.88;1.30;;;;;;;3.48;61.74;100296.97;5075859;28;20055;-63
2021/01/14 02:26:55;;;;;;;4.90;1.27;;;;;;;3.46;61.57;100299.16;5075155;28;20367;-63
2021/01/14 02:29:22;;;;;;;8.02;1.50;;;;;;;3.49;61.37;100300.56;5075321;28;20053;-63
2021/01/14 02:31:49;;;;;;;8.45;1.50;;;;;;;3.52;61.50;100308.28;5075452;28;20049;-63
2021/01/14 02:34:16;;;;;;;5.15;1.80;;;;;;;3.53;61.08;100310.75;5075714;28;20059;-63
2021/01/14 02:36:43;;;;;;;7.15;2.00;;;;;;;3.55;61.35;100313.22;5075752;28;20060;-63
2021/01/14 02:39:09;;;;;;;8.57;2.15;;;;;;;3.53;60.85;100315.41;5075578;28;20374;-63
2021/01/14 02:41:36;;;;;;;4.97;1.40;;;;;;;3.54;61.12;100323.41;5075160;28;20058;-63
2021/01/14 02:44:05;;;;;;;3.58;1.20;;;;;;;3.54;61.31;100317.91;5075997;28;20045;-63
2021/01/14 02:46:32;;;;;;;4.50;1.20;;;;;;;3.57;60.86;100333.91;5074985;28;20086;-63
2021/01/14 02:49:05;;;;;;;8.43;1.65;;;;;;;3.58;60.52;100323.72;5082173;28;20064;-63
2021/01/14 02:51:40;;;;;;;7.22;1.52;;;;;;;3.59;60.25;100341.88;5089825;28;20069;-63
2021/01/14 02:54:09;;;;;;;7.68;1.40;;;;;;;3.59;60.33;100350.13;5075313;28;20401;-63
2021/01/14 02:56:37;;;;;;;5.10;1.50;;;;;;;3.57;60.74;100352.34;5074805;28;20072;-63
2021/01/14 02:59:06;;;;;;;4.22;1.40;;;;;;;3.55;61.36;100358.13;5075132;28;20059;-63
2021/01/14 03:01:33;;;;;;;4.07;1.50;;;;;;;3.55;61.34;100358.13;5075260;28;20409;-63
2021/01/14 03:04:00;;;;;;;5.70;1.40;;;;;;;3.53;61.79;100360.34;5074650;28;20061;-63
2021/01/14 03:06:27;;;;;;;3.63;1.33;;;;;;;3.56;61.79;100356.19;5074562;28;20429;-63
2021/01/14 03:08:54;;;;;;;4.38;1.33;;;;;;;3.55;61.29;100362.78;5074786;28;20064;-63
2021/01/14 03:11:27;;;;;;;5.57;1.60;;;;;;;3.52;60.87;100366.91;5075345;28;20060;-63
2021/01/14 03:13:57;;;;;;;7.03;1.20;;;;;;;3.55;61.34;100374.66;5074874;28;20501;-63
2021/01/14 03:16:25;;;;;;;7.75;1.48;;;;;;;3.52;61.66;100377.13;5074402;28;20053;-63
2021/01/14 03:18:52;;;;;;;4.45;1.20;;;;;;;3.52;61.80;100380.69;5074597;28;20059;-63
2021/01/14 03:21:20;;;;;;;7.65;1.67;;;;;;;3.53;61.57;100382.38;5075201;28;20389;-63
2021/01/14 03:23:47;;;;;;;7.65;1.48;;;;;;;3.50;61.89;100382.88;5074323;28;20044;-62
2021/01/14 03:26:14;;;;;;;4.95;1.85;;;;;;;3.47;62.30;100382.63;5073971;28;20071;-63
2021/01/14 03:28:42;;;;;;;5.90;1.50;;;;;;;3.40;62.33;100388.34;5074067;28;20059;-63
2021/01/14 03:31:10;;;;;;;2.97;1.20;;;;;;;3.42;61.90;100397.16;5074372;28;20048;-63
2021/01/14 03:33:38;;;;;;;7.82;1.42;;;;;;;3.43;62.66;100401.59;5075138;28;20071;-63
2021/01/14 03:36:06;;;;;;;5.13;1.38;;;;;;;3.44;62.94;100403.22;5074726;28;20127;-63
2021/01/14 03:38:36;;;;;;;5.60;1.33;;;;;;;3.45;62.34;100404.91;5074054;28;20056;-63
2021/01/14 03:41:07;;;;;;;3.95;1.30;;;;;;;3.48;62.63;100400.78;5073792;28;20440;-63
2021/01/14 03:43:34;;;;;;;4.95;1.67;;;;;;;3.49;63.51;100408.78;5073745;28;20052;-63
2021/01/14 03:46:01;;;;;;;5.85;2.03;;;;;;;3.51;62.84;100406.59;5073667;28;20064;-63
2021/01/14 03:48:28;;;;;;;8.23;1.40;;;;;;;3.48;62.57;100403.53;5073703;28;20508;-63
2021/01/14 03:50:56;;;;;;;4.93;1.60;;;;;;;3.49;62.49;100407.97;5073491;28;20057;-62
2021/01/14 03:53:22;;;;;;;4.53;1.30;;;;;;;3.49;62.11;100414.28;5073858;28;20489;-63
2021/01/14 03:55:49;;;;;;;9.15;1.40;;;;;;;3.49;62.97;100403.28;5053604;28;20052;-63
2021/01/14 03:58:16;;;;;;;3.58;1.33;;;;;;;3.48;62.80;100400.78;5053327;28;20056;-63
2021/01/14 04:00:44;;;;;;;7.05;1.80;;;;;;;3.46;62.80;100403.78;5053506;28;20080;-63
2021/01/14 04:03:11;;;;;;;10.32;2.08;;;;;;;3.43;63.36;100393.34;5053726;28;20045;-62
2021/01/14 04:05:37;;;;;;;5.68;1.73;;;;;;;3.39;63.23;100401.28;5072841;28;20052;-63
2021/01/14 04:08:05;;;;;;;5.75;1.35;;;;;;;3.36;63.34;100407.34;5073321;28;20048;-63
2021/01/14 04:10:32;;;;;;;5.32;1.40;;;;;;;3.34;63.95;100411.44;5073348;28;20060;-63
2021/01/14 04:12:59;;;;;;;5.55;1.60;;;;;;;3.29;64.40;100411.44;5073559;28;20063;-63
2021/01/14 04:15:26;;;;;;;6.65;1.40;;;;;;;3.31;64.16;100409.25;5073620;28;20052;-63
2021/01/14 04:17:53;;;;;;;5.10;1.52;;;;;;;3.29;64.20;100425.19;5073557;28;20057;-63
2021/01/14 04:20:20;;;;;;;6.15;1.20;;;;;;;3.28;63.66;100423.56;5072931;28;20052;-63
2021/01/14 04:22:52;;;;;;;9.00;2.13;;;;;;;3.26;64.42;100423.81;5073182;28;20048;-63
2021/01/14 04:25:28;;;;;;;4.93;1.67;;;;;;;3.20;64.24;100416.63;5072568;28;20056;-63
2021/01/14 04:27:55;;;;;;;7.85;1.50;;;;;;;3.14;64.05;100415.75;5073034;28;20059;-63
2021/01/14 04:30:22;;;;;;;9.05;1.98;;;;;;;3.07;64.56;100420.69;5073481;28;20489;-63
2021/01/14 04:32:49;;;;;;;6.85;1.63;;;;;;;3.02;64.77;100426.13;5073319;28;20049;-63
2021/01/14 04:35:16;;;;;;;6.57;1.60;;;;;;;2.96;64.76;100429.94;5072898;28;20048;-63
2021/01/14 04:37:42;;;;;;;7.95;2.67;;;;;;;2.89;65.21;100429.34;5073346;28;20397;-63
2021/01/14 04:40:13;;;;;;;8.25;1.90;;;;;;;2.92;64.72;100423.31;5072554;28;20075;-63
2021/01/14 04:42:45;;;;;;;10.05;2.40;;;;;;;2.96;64.20;100422.53;5072789;28;20059;-63
2021/01/14 04:45:13;;;;;;;4.25;1.30;;;;;;;2.95;65.05;100417.28;5072671;28;20056;-63
2021/01/14 04:47:45;;;;;;;9.10;1.65;;;;;;;2.90;65.61;100422.75;5072995;28;20397;-63
2021/01/14 04:50:13;;;;;;;7.35;2.63;;;;;;;2.83;66.42;100426.56;5072755;28;20048;-63
2021/01/14 04:52:43;;;;;;;7.43;2.30;;;;;;;2.84;66.63;100425.47;5073045;28;20395;-63
2021/01/14 04:55:14;;;;;;;7.25;1.40;;;;;;;2.88;65.95;100427.69;5072882;28;20052;-63
2021/01/14 04:57:45;;;;;;;6.07;1.50;;;;;;;2.90;65.73;100429.09;5072667;28;20055;-63
2021/01/14 05:00:13;;;;;;;6.78;1.73;;;;;;;2.95;66.09;100431.03;5072628;28;20064;-63
2021/01/14 05:02:57;;;;;;;6.63;1.70;;;;;;;2.93;65.93;100428.56;5073392;28;20424;-63
2021/01/14 05:05:25;;;;;;;5.93;1.70;;;;;;;2.95;64.79;100428.28;5072561;28;20056;-63
2021/01/14 05:08:04;;;;;;;7.35;1.83;;;;;;;2.90;66.43;100433.75;5072766;28;20052;-63
2021/01/14 05:10:32;;;;;;;4.07;1.67;;;;;;;2.91;65.80;100443.66;5072972;28;20515;-63
2021/01/14 05:13:01;;;;;;;4.47;1.65;;;;;;;2.87;65.82;100439.78;5072488;28;20515;-63
2021/01/14 05:15:29;;;;;;;6.03;1.95;;;;;;;2.88;66.92;100439.53;5072221;28;20381;-63
2021/01/14 05:17:57;;;;;;;4.35;1.50;;;;;;;2.90;65.46;100431.00;5072796;28;20060;-63
2021/01/14 05:20:24;;;;;;;4.90;1.73;;;;;;;2.89;66.41;100429.34;5072225;28;20063;-63
2021/01/14 05:22:58;;;;;;;5.85;1.58;;;;;;;2.93;65.19;100428.56;5092525;28;20052;-63
2021/01/14 05:25:26;;;;;;;6.70;2.30;;;;;;;2.93;65.66;100444.22;5074120;28;20064;-63
2021/01/14 05:27:55;;;;;;;8.35;2.13;;;;;;;2.97;66.72;100445.38;5072619;28;20052;-63
2021/01/14 05:30:25;;;;;;;3.95;1.55;;;;;;;2.99;66.64;100440.44;5072160;28;20059;-63
2021/01/14 05:32:52;;;;;;;5.32;1.50;;;;;;;2.94;67.17;100435.72;5072524;28;20401;-63
2021/01/14 05:35:28;;;;;;;8.43;2.30;;;;;;;2.92;66.04;100437.06;5072218;28;20052;-63
2021/01/14 05:38:00;;;;;;;5.25;1.90;;;;;;;2.95;66.73;100442.06;5072663;28;20045;-63
2021/01/14 05:40:29;;;;;;;8.23;1.90;;;;;;;2.93;65.93;100447.81;5071631;28;20160;-63
2021/01/14 05:43:04;;;;;;;9.68;1.95;;;;;;;2.95;66.47;100442.06;5072837;28;20492;-63
2021/01/14 05:45:32;;;;;;;5.32;1.90;;;;;;;2.95;66.39;100444.81;5072139;28;20059;-63
2021/01/14 05:48:10;;;;;;;6.93;2.25;;;;;;;2.95;66.47;100448.38;5072180;28;20068;-63
2021/01/14 05:50:43;;;;;;;7.00;2.10;;;;;;;2.97;65.75;100448.13;5076323;28;20405;-63
2021/01/14 05:53:14;;;;;;;8.55;3.03;;;;;;;2.98;65.81;100461.63;5078703;28;20089;-63
2021/01/14 05:55:44;;;;;;;7.65;2.50;;;;;;;2.97;65.02;100457.19;5076975;28;20390;-62
2021/01/14 05:58:18;;;;;;;11.30;4.38;;;;;;;2.95;65.11;100459.38;5076066;28;20079;-61
2021/01/14 06:00:46;;;;;;;11.02;3.97;;;;;;;2.96;65.42;100471.22;5076365;28;20049;-63
2021/01/14 06:03:24;;;;;;;12.10;4.38;;;;;;;2.91;64.99;100473.94;5076525;28;20500;-63
2021/01/14 06:05:53;;;;;;;11.30;3.60;;;;;;;2.87;65.64;100472.81;5076092;28;20052;-63
2021/01/14 06:08:23;;;;;;;10.40;3.63;;;;;;;2.87;65.62;100472.81;5075714;28;20060;-63
2021/01/14 06:10:50;;;;;;;9.73;3.15;;;;;;;2.87;65.25;100492.06;5074510;28;20067;-63
2021/01/14 06:13:17;;;;;;;8.68;2.50;;;;;;;2.91;65.36;100483.00;5076820;28;20524;-63
2021/01/14 06:15:57;;;;;;;7.38;2.13;;;;;;;2.84;65.46;100485.97;5075573;28;20048;-63
2021/01/14 06:18:25;;;;;;;7.82;2.72;;;;;;;2.83;66.04;100494.50;5075415;28;20405;-63
2021/01/14 06:20:56;;;;;;;7.47;2.60;;;;;;;2.83;65.86;100497.25;5074663;28;20409;-63
2021/01/14 06:23:23;;;;;;;6.45;2.17;;;;;;;2.73;65.92;100495.25;5075770;28;20405;-62
2021/01/14 06:25:52;;;;;;;7.93;2.30;;;;;;;2.67;65.84;100496.28;5075297;28;20067;-63
2021/01/14 06:28:22;;;;;;;12.50;3.58;;;;;;;2.63;66.10;100495.97;5075967;28;20052;-63
2021/01/14 06:31:02;;;;;;;6.63;2.20;;;;;;;2.55;66.84;100490.94;5075441;28;20068;-63
2021/01/14 06:33:31;;;;;;;6.80;2.10;;;;;;;2.53;66.64;100504.13;5075696;28;20052;-63
2021/01/14 06:36:09;;;;;;;7.60;2.63;;;;;;;2.55;65.94;100509.38;5074850;28;20067;-63
2021/01/14 06:38:44;;;;;;;4.40;1.90;;;;;;;2.51;67.15;100506.31;5075180;28;20059;-63
2021/01/14 06:41:15;;;;;;;7.75;2.10;;;;;;;2.42;67.41;100511.44;5083558;28;20053;-63
2021/01/14 06:43:45;;;;;;;4.70;1.90;;;;;;;2.43;67.39;100513.09;5075288;28;20382;-63
2021/01/14 06:46:20;;;;;;;4.33;2.27;;;;;;;2.43;67.16;100518.59;5076081;28;20048;-63
2021/01/14 06:49:04;;;;;;;6.18;2.00;;;;;;;2.49;66.97;100522.22;5070979;28;20057;-62
2021/01/14 06:51:46;;;;;;;5.47;2.03;;;;;;;2.54;66.76;100524.19;5075177;28;20382;-63
2021/01/14 06:54:17;;;;;;;7.53;2.00;;;;;;;2.60;66.96;100528.66;5072826;28;20493;-63
2021/01/14 06:56:48;;;;;;;6.68;2.10;;;;;;;2.64;67.00;100529.81;5074406;28;20079;-63
2021/01/14 06:59:18;;;;;;;8.27;2.22;;;;;;;2.64;66.51;100532.56;5073198;28;20446;-63
2021/01/14 07:01:58;;;;;;;;;;;;;;;2.65;66.30;100528.72;5074713;28;20052;-63
2021/01/14 07:04:38;;;;;;;7.68;2.72;;;;;;;2.65;67.24;100545.22;5074978;28;19927;-63
2021/01/14 07:07:19;;;;;;;6.28;2.47;;;;;;;2.70;67.19;100542.50;5075008;28;20048;-63
2021/01/14 07:10:03;;;;;;;7.70;2.45;;;;;;;2.71;67.20;100538.69;5074867;28;20055;-63
2021/01/14 07:12:35;;;;;;;5.13;2.45;;;;;;;2.77;66.54;100545.91;5075015;28;20083;-62
2021/01/14 07:15:06;;;;;;;4.70;2.28;;;;;;;2.84;66.96;100545.69;5071680;28;20063;-63
2021/01/14 07:17:37;;;;;;;4.68;2.20;;;;;;;2.88;66.38;100540.47;5074848;28;20063;-61
2021/01/14 07:20:08;;;;;;;7.30;2.00;;;;;;;2.93;66.66;100543.28;5074979;28;20055;-62
2021/01/14 07:22:39;;;;;;;9.88;2.33;;;;;;;2.95;67.01;100547.41;5074486;28;20059;-62
2021/01/14 07:25:09;;;;;;;8.65;2.50;;;;;;;3.00;66.63;100549.38;5073822;28;20056;-62
2021/01/14 07:27:37;;;;;;;8.82;2.60;;;;;;;2.96;66.24;100551.84;5074975;28;20052;-62
2021/01/14 07:30:07;;;;;;;8.80;2.83;;;;;;;3.04;66.44;100558.78;5074292;28;20521;-62
2021/01/14 07:32:53;;;;;;;8.60;3.17;;;;;;;3.09;66.40;100558.84;5074309;28;20049;-62
2021/01/14 07:35:44;;;;;;;8.20;2.70;;;;;;;3.20;65.10;100562.50;5067567;28;20075;-64
2021/01/14 07:38:12;;;;;;;10.13;2.92;;;;;;;3.28;64.84;100558.44;5050102;28;20059;-63
2021/01/14 07:40:40;;;;;;;7.68;3.00;;;;;;;3.34;64.44;100560.97;5074476;28;20378;-63
2021/01/14 07:43:09;;;;;;;7.20;2.63;;;;;;;3.38;63.82;100562.09;5074008;28;20049;-64
2021/01/14 07:45:36;;;;;;;8.30;2.88;;;;;;;3.40;63.12;100564.56;5073297;28;20064;-63
2021/01/14 07:48:18;;;;;;;6.53;2.47;;;;;;;3.50;62.22;100569.31;5074591;28;20048;-63
2021/01/14 07:50:56;;;;;;;5.45;2.70;;;;;;;3.54;62.14;100576.78;5073451;28;20053;-63
2021/01/14 07:53:26;;;;;;;6.03;2.47;;;;;;;3.63;61.40;100575.19;5072069;28;20044;-63
2021/01/14 07:55:54;;;;;;;9.85;2.78;;;;;;;3.70;61.31;100576.91;5070008;28;20048;-63
2021/01/14 07:58:23;;;;;;;9.45;3.05;;;;;;;3.79;60.65;100578.03;5061613;28;20052;-64
2021/01/14 08:01:04;;;;;;;10.95;3.90;;;;;;;3.81;60.32;100584.13;5073709;28;20056;-64
2021/01/14 08:03:34;;;;;;;5.97;2.60;;;;;;;3.83;60.54;100592.94;5073159;28;20044;-64
2021/01/14 08:06:16;;;;;;;12.10;4.63;;;;;;;3.85;59.71;100599.03;5073801;28;20048;-63
2021/01/14 08:08:55;;;;;;;6.65;2.50;;;;;;;3.91;60.13;100597.94;5072569;28;20057;-62
2021/01/14 08:11:24;;;;;;;6.35;2.40;;;;;;;3.91;59.63;100597.94;5072788;28;20417;-63
2021/01/14 08:14:10;;;;;;;7.88;2.85;;;;;;;3.99;59.63;100605.72;5073104;28;20405;-63
2021/01/14 08:16:42;;;;;;;7.25;2.85;;;;;;;4.04;59.32;100608.50;5071247;28;20072;-64
2021/01/14 08:19:34;;;;;;;7.40;3.05;;;;;;;4.10;59.36;100616.81;5077093;28;20053;-64
2021/01/14 08:22:09;;;;;;;5.55;3.05;;;;;;;4.16;59.22;100622.06;5059573;28;20044;-63
2021/01/14 08:24:48;;;;;;;7.60;3.22;;;;;;;4.23;58.47;100616.31;5071915;28;20049;-64
2021/01/14 08:27:22;;;;;;;8.77;3.70;;;;;;;4.26;58.73;100615.75;5060601;28;20049;-63
2021/01/14 08:29:55;;;;;;;7.20;3.10;;;;;;;4.30;58.28;100614.13;5069054;28;20055;-64
2021/01/14 08:32:45;;;;;;;9.35;3.22;;;;;;;4.37;57.94;100611.97;5059086;28;20064;-64
2021/01/14 08:35:22;;;;;;;5.25;2.83;;;;;;;4.52;57.23;100610.38;5071461;28;20409;-63
2021/01/14 08:37:51;;;;;;;6.70;3.08;;;;;;;4.63;56.78;100615.63;5059937;28;20057;-64
2021/01/14 08:40:24;;;;;;;5.90;3.05;;;;;;;4.74;56.53;100616.47;5070311;28;20053;-64
2021/01/14 08:43:01;;;;;;;4.68;2.67;;;;;;;4.84;56.11;100616.50;5073350;28;20056;-64
2021/01/14 08:45:30;;;;;;;4.28;2.60;;;;;;;4.87;56.10;100621.50;5072458;28;20048;-64
2021/01/14 08:48:07;;;;;;;13.75;7.05;;;;;;;4.96;56.11;100612.69;5071862;28;20049;-64
2021/01/14 08:50:47;;;;;;;13.27;6.45;;;;;;;5.07;55.60;100619.88;5072290;28;20052;-64
2021/01/14 08:53:28;;;;;;;12.07;7.10;;;;;;;5.20;55.62;100619.31;5071632;28;20053;-63
2021/01/14 08:55:59;;;;;;;11.18;5.38;;;;;;;5.36;55.26;100627.63;5066802;28;20059;-64
2021/01/14 08:58:42;;;;;;;10.90;5.03;;;;;;;5.48;55.02;100626.25;5061162;28;20044;-64
2021/01/14 09:01:17;;;;;;;10.43;5.97;;;;;;;5.60;54.40;100619.59;5056952;28;20052;-64
2021/01/14 09:03:45;;;;;;;7.00;4.78;;;;;;;5.63;54.15;100621.81;5072168;28;20052;-64
2021/01/14 09:06:13;;;;;;;10.38;3.67;;;;;;;5.64;53.85;100620.69;5072194;28;20051;-64
2021/01/14 09:08:40;;;;;;;8.35;3.58;;;;;;;5.62;53.84;100620.97;5071119;28;20063;-63
2021/01/14 09:11:07;;;;;;;6.18;3.50;;;;;;;5.71;53.89;100629.53;5072155;28;20059;-64
2021/01/14 09:13:35;;;;;;;5.28;3.47;;;;;;;5.82;53.67;100628.44;5063927;28;20052;-64
2021/01/14 09:16:08;;;;;;;8.35;4.28;;;;;;;5.86;52.62;100640.59;5068707;28;20049;-63
2021/01/14 09:18:37;;;;;;;8.00;3.90;;;;;;;5.83;52.87;100630.06;5065307;28;20067;-64
2021/01/14 09:21:04;;;;;;;6.55;3.53;;;;;;;5.87;52.76;100638.63;5071246;28;20060;-63
2021/01/14 09:23:34;;;;;;;5.65;3.53;;;;;;;5.91;52.57;100639.75;5066844;28;20048;-63
2021/01/14 09:26:03;;;;;;;6.60;2.97;;;;;;;5.96;52.43;100641.69;5075911;28;20076;-64
2021/01/14 09:28:32;;;;;;;9.82;3.75;;;;;;;5.90;52.96;100646.38;5061034;28;20060;-63
2021/01/14 09:31:01;;;;;;;5.95;3.33;;;;;;;5.94;52.88;100653.00;5075293;28;20052;-64
2021/01/14 09:33:32;;;;;;;5.37;2.87;;;;;;;6.05;52.09;100649.16;5074904;28;20059;-64
2021/01/14 09:36:10;;;;;;;7.80;3.67;;;;;;;6.21;52.41;100640.81;5075506;28;20389;-64
2021/01/14 09:38:45;;;;;;;8.57;3.53;;;;;;;6.35;51.43;100652.94;5060714;28;20052;-64
2021/01/14 09:41:19;;;;;;;7.25;3.78;;;;;;;6.48;51.58;100657.03;5075682;28;20048;-64
2021/01/14 09:43:49;;;;;;;7.05;3.75;;;;;;;6.55;52.24;100663.13;5073310;28;20059;-64
2021/01/14 09:46:16;;;;;;;9.05;3.28;;;;;;;6.68;50.55;100665.25;5074417;28;20053;-64
2021/01/14 09:48:43;;;;;;;4.95;3.10;;;;;;;6.69;51.37;100666.91;5072867;28;20056;-64
2021/01/14 09:51:11;;;;;;;12.02;4.43;;;;;;;6.80;50.69;100670.44;5072336;28;20514;-63
2021/01/14 09:53:47;;;;;;;9.02;3.90;;;;;;;6.91;50.15;100666.53;5069004;28;20068;-65
2021/01/14 09:56:22;;;;;;;6.50;3.85;;;;;;;7.02;50.14;100674.78;5073547;28;20509;-64
2021/01/14 09:58:55;;;;;;;7.40;2.97;;;;;;;7.02;49.64;100675.59;5067151;28;20053;-64
2021/01/14 10:01:29;;;;;;;6.93;4.15;;;;;;;7.05;48.77;100675.03;5079436;28;20044;-64
2021/01/14 10:04:05;;;;;;;9.45;3.78;;;;;;;6.99;48.88;100669.81;5069031;28;20044;-64
2021/01/14 10:06:36;;;;;;;6.82;4.75;;;;;;;6.93;49.62;100676.47;5071278;28;20060;-64
2021/01/14 10:09:05;;;;;;;6.68;3.67;;;;;;;6.81;49.22;100682.38;5070321;28;20044;-64
2021/01/14 10:11:34;;;;;;;6.60;3.30;;;;;;;6.59;50.34;100682.72;5070248;28;20048;-64
2021/01/14 10:14:01;;;;;;;9.95;4.35;;;;;;;6.63;49.91;100673.56;5074566;28;20052;-63
2021/01/14 10:16:29;;;;;;;5.95;3.35;;;;;;;6.67;49.96;100679.38;5073458;28;20055;-64
2021/01/14 10:19:09;;;;;;;4.97;3.15;;;;;;;6.83;49.08;100677.38;5066485;28;20048;-64
2021/01/14 10:21:38;;;;;;;11.95;4.47;;;;;;;7.01;48.17;100681.44;5072429;28;20609;-64
2021/01/14 10:24:18;;;;;;;5.93;2.80;;;;;;;7.27;48.13;100671.84;5073183;28;20047;-64
2021/01/14 10:26:45;;;;;;;12.55;4.40;;;;;;;7.63;47.68;100679.91;5059607;28;20060;-64
2021/01/14 10:29:28;;;;;;;6.93;3.72;;;;;;;7.91;46.54;100669.13;5061313;28;20485;-64
2021/01/14 10:32:01;;;;;;;5.50;2.65;;;;;;;8.25;45.03;100669.06;5069439;28;20049;-64
2021/01/14 10:34:42;;;;;;;5.90;3.58;;;;;;;8.18;46.35;100674.13;5071084;28;20053;-64
2021/01/14 10:37:20;;;;;;;6.32;3.42;;;;;;;7.94;45.79;100668.56;5070332;28;20052;-64
2021/01/14 10:39:49;;;;;;;8.48;3.17;;;;;;;7.77;46.81;100668.13;5072531;28;20048;-64
2021/01/14 10:42:32;;;;;;;4.53;2.70;;;;;;;7.68;47.59;100677.06;5070831;28;20044;-66
2021/01/14 10:45:00;;;;;;;6.50;2.70;;;;;;;7.61;47.05;100681.31;5071172;28;20056;-65
2021/01/14 10:47:27;;;;;;;6.30;2.97;;;;;;;7.40;47.21;100675.09;5073483;28;20045;-64
2021/01/14 10:49:54;;;;;;;5.55;2.95;;;;;;;6.99;48.31;100678.97;5072838;28;20067;-63
2021/01/14 10:52:22;;;;;;;6.65;2.88;;;;;;;6.72;49.08;100676.59;5058080;28;20497;-64
2021/01/14 10:54:58;;;;;;;5.63;3.38;;;;;;;6.66;49.36;100683.28;5059954;28;20045;-57
2021/01/14 10:57:25;;;;;;;8.50;4.68;;;;;;;6.74;50.31;100679.91;5074731;28;20052;-64
2021/01/14 10:59:51;;;;;;;10.55;4.45;;;;;;;6.76;49.47;100682.38;5073463;28;20045;-67
2021/01/14 11:02:23;;;;;;;11.63;6.55;;;;;;;6.59;50.13;100682.72;5074560;28;20049;-67
2021/01/14 11:04:55;;;;;;;12.68;6.40;;;;;;;6.67;49.92;100685.72;5075605;28;20059;-67
2021/01/14 11:07:24;;;;;;;10.90;6.07;;;;;;;6.49;49.84;100689.16;5071215;28;20056;-67
2021/01/14 11:09:52;;;;;;;5.50;3.63;;;;;;;6.56;49.95;100680.53;5074718;28;20060;-67
2021/01/14 11:12:22;;;;;;;12.85;7.38;;;;;;;6.60;50.52;100685.22;5058957;28;20064;-67
2021/01/14 11:14:49;;;;;;;;;;;;;;;6.61;51.00;100680.50;5055793;28;20060;-67
2021/01/14 11:17:15;;;;;;;8.10;3.38;;;;;;;6.42;51.38;100683.88;5062977;28;19928;-67
2021/01/14 11:19:43;;;;;;;6.90;3.65;;;;;;;6.35;51.62;100683.38;5055770;28;20049;-67
2021/01/14 11:22:09;;;;;;;4.18;2.78;;;;;;;6.27;51.48;100683.94;5056645;28;20451;-67
2021/01/14 11:24:37;;;;;;;7.85;3.50;;;;;;;6.23;51.81;100674.53;5055236;28;20513;-67
2021/01/14 11:27:03;;;;;;;7.90;3.58;;;;;;;6.20;51.25;100664.88;5054705;28;20048;-67
2021/01/14 11:29:33;;;;;;;6.00;3.42;;;;;;;6.15;51.98;100666.81;5054003;28;20053;-67
2021/01/14 11:32:00;;;;;;;6.33;3.60;;;;;;;6.01;51.91;100656.34;5057630;28;20051;-67
2021/01/14 11:34:28;;;;;;;8.13;3.50;;;;;;;5.96;52.44;100669.34;5062260;28;21036;-67
2021/01/14 11:36:56;;;;;;;8.05;3.70;;;;;;;6.01;52.69;100661.88;5053966;28;20402;-67
2021/01/14 11:39:23;;;;;;;10.38;4.82;;;;;;;5.99;52.97;100647.50;5054457;28;20053;-67
2021/01/14 11:41:52;;;;;;;5.70;3.47;;;;;;;5.98;52.41;100656.06;5060509;28;20048;-67
2021/01/14 11:44:19;;;;;;;6.88;4.13;;;;;;;5.87;52.62;100655.22;5066286;28;20090;-67
2021/01/14 11:46:47;;;;;;;9.07;4.85;;;;;;;5.94;52.89;100652.16;5064710;28;20048;-67
2021/01/14 11:49:16;;;;;;;8.73;5.00;;;;;;;5.90;52.41;100643.63;5055503;28;20056;-67
2021/01/14 11:51:49;;;;;;;6.88;3.85;;;;;;;5.19;54.35;100645.28;5053381;28;20056;-61